Terminal Aerodrome Forecast
Issued by NWS Sterling, VA

Current Version | Previous Version | Graphics & Text | Print | Product List | Glossary On
Versions: 1 2 3 4 5 6 7 8 9 10 11 12 13 14 15 16 17 18 19 20
142
FTUS41 KLWX 251338 AAB
TAFMRB
TAF AMD
KMRB 251338Z 2514/2612 01006KT 4SM BR BKN006 OVC015
     FM251500 35005KT P6SM OVC008
     FM251900 32005KT P6SM BKN010
     FM252100 32007KT P6SM BKN025
     FM252300 32008KT P6SM BKN035
     FM260000 32008KT P6SM BKN025
     FM260200 31009KT P6SM SCT025
     FM261000 31009KT P6SM FEW025=

USA.gov is the U.S. government's official web portal to all federal, state and local government web resources and services.